Time;durP1;ratioP1;P1;durP2;ratioP2;P2;SDS_P1;SDS_P2;PMS_P1;PMS_P2;Temp;Humidity;BMP_temperature;BMP_pressure;BME280_temperature;BME280_humidity;BME280_pressure;Samples;Min_cycle;Max_cycle;Signal;HPM_P1;HPM_P2
2022/05/12 00:01:25;;;;;;;;;;;15.60;99.90;;;;;;5071713;28;19925;-67
2022/05/12 00:03:52;;;;;;;;;;;15.50;99.90;;;;;;5071323;28;19928;-67
2022/05/12 00:06:18;;;;;;;;;;;15.50;99.90;;;;;;5070332;28;19929;-67
2022/05/12 00:08:47;;;;;;;;;;;15.50;99.90;;;;;;5069920;28;19936;-67
2022/05/12 00:11:14;;;;;;;;;;;15.40;99.90;;;;;;5068890;28;19931;-68
2022/05/12 00:13:41;;;;;;;;;;;15.40;99.90;;;;;;5069455;28;19970;-67
2022/05/12 00:16:08;;;;;;;;;;;15.30;99.90;;;;;;5069799;28;20003;-68
2022/05/12 00:18:34;;;;;;;;;;;15.30;99.90;;;;;;5069590;28;19928;-68
2022/05/12 00:21:01;;;;;;;;;;;15.30;99.90;;;;;;5069254;28;19925;-68
2022/05/12 00:23:29;;;;;;;;;;;15.30;99.90;;;;;;5069457;28;19925;-67
2022/05/12 00:25:57;;;;;;;;;;;15.20;99.90;;;;;;5069768;28;20361;-68
2022/05/12 00:28:25;;;;;;;;;;;15.20;99.90;;;;;;5069595;28;19928;-68
2022/05/12 00:30:53;;;;;;;;;;;15.20;99.90;;;;;;5069669;28;20062;-68
2022/05/12 00:33:22;;;;;;;;;;;15.10;99.90;;;;;;5069687;28;19975;-67
2022/05/12 00:35:49;;;;;;;;;;;15.10;99.90;;;;;;5069459;28;19925;-67
2022/05/12 00:38:16;;;;;;;;;;;15.10;99.90;;;;;;5071260;28;19928;-67
2022/05/12 00:40:45;;;;;;;;;;;15.10;99.90;;;;;;5070893;28;19924;-67
2022/05/12 00:43:26;;;;;;;;;;;15.00;99.90;;;;;;5071049;28;19929;-67
2022/05/12 00:45:54;;;;;;;;;;;15.00;99.90;;;;;;5070133;28;19925;-67
2022/05/12 00:48:21;;;;;;;;;;;15.00;99.90;;;;;;5071344;28;19978;-67
2022/05/12 00:50:48;;;;;;;;;;;15.00;99.90;;;;;;5070725;28;19925;-67
2022/05/12 00:53:15;;;;;;;;;;;15.00;99.90;;;;;;5070997;28;19928;-67
2022/05/12 00:55:43;;;;;;;;;;;15.00;99.90;;;;;;5070620;28;20392;-67
2022/05/12 00:58:11;;;;;;;;;;;15.00;99.90;;;;;;5070801;28;20387;-67
2022/05/12 01:00:38;;;;;;;;;;;15.10;99.90;;;;;;5070489;28;19978;-67
2022/05/12 01:03:08;;;;;;;;;;;15.00;99.90;;;;;;5070740;28;20391;-67
2022/05/12 01:05:35;;;;;;;;;;;15.10;99.90;;;;;;5069131;28;19933;-66
2022/05/12 01:08:02;;;;;;;;;;;15.10;99.90;;;;;;5068851;28;19928;-67
2022/05/12 01:10:30;;;;;;;;;;;15.20;99.90;;;;;;5068590;28;19925;-67
2022/05/12 01:12:56;;;;;;;;;;;15.20;99.90;;;;;;5068404;28;19924;-67
2022/05/12 01:15:25;;;;;;;;;;;15.20;99.90;;;;;;5068220;28;19924;-68
2022/05/12 01:18:00;;;;;;;;;;;15.10;99.90;;;;;;5069601;28;20299;-67
2022/05/12 01:20:28;;;;;;;;;;;15.10;99.90;;;;;;5068012;28;20035;-68
2022/05/12 01:22:57;;;;;;;;;;;15.10;99.90;;;;;;5068398;28;19935;-67
2022/05/12 01:25:28;;;;;;;;;;;15.10;99.90;;;;;;5068097;28;19931;-67
2022/05/12 01:27:55;;;;;;;;;;;15.10;99.90;;;;;;5068610;28;20350;-67
2022/05/12 01:30:22;;;;;;;;;;;15.20;99.90;;;;;;5068483;28;20296;-67
2022/05/12 01:32:50;;;;;;;;;;;15.20;99.90;;;;;;5063147;28;19924;-67
2022/05/12 01:35:20;;;;;;;;;;;15.10;99.90;;;;;;5061956;28;19956;-67
2022/05/12 01:37:47;;;;;;;;;;;15.20;99.90;;;;;;5069904;28;19931;-67
2022/05/12 01:40:16;;;;;;;;;;;15.10;99.90;;;;;;5069692;28;19933;-67
2022/05/12 01:42:44;;;;;;;;;;;15.10;99.90;;;;;;5070116;28;19933;-68
2022/05/12 01:45:11;;;;;;;;;;;15.00;99.90;;;;;;5069635;28;19928;-68
2022/05/12 01:47:39;;;;;;;;;;;15.00;99.90;;;;;;5069887;28;19994;-68
2022/05/12 01:50:06;;;;;;;;;;;15.00;99.90;;;;;;5069587;28;19928;-67
2022/05/12 01:52:33;;;;;;;;;;;15.00;99.90;;;;;;5069912;28;20403;-67
2022/05/12 01:55:00;;;;;;;;;;;14.90;99.90;;;;;;5069806;28;19925;-67
2022/05/12 01:57:28;;;;;;;;;;;14.90;99.90;;;;;;5069926;28;19929;-67
2022/05/12 01:59:57;;;;;;;;;;;14.90;99.90;;;;;;5069886;28;19928;-67
2022/05/12 02:02:25;;;;;;;;;;;14.80;99.90;;;;;;5070117;28;19929;-67
2022/05/12 02:04:52;;;;;;;;;;;14.80;99.90;;;;;;5069147;28;19930;-68
2022/05/12 02:07:19;;;;;;;;;;;14.70;99.90;;;;;;5068037;28;20493;-67
2022/05/12 02:09:46;;;;;;;;;;;14.60;99.90;;;;;;5067576;28;20431;-67
2022/05/12 02:12:13;;;;;;;;;;;14.60;99.90;;;;;;5068168;28;20399;-67
2022/05/12 02:14:40;;;;;;;;;;;14.50;99.90;;;;;;5067615;28;19928;-67
2022/05/12 02:17:08;;;;;;;;;;;14.40;99.90;;;;;;5067689;28;19924;-68
2022/05/12 02:19:35;;;;;;;;;;;14.30;99.90;;;;;;5067488;28;19928;-67
2022/05/12 02:22:03;;;;;;;;;;;14.20;99.90;;;;;;5067766;28;19925;-67
2022/05/12 02:24:30;;;;;;;;;;;14.00;99.90;;;;;;5067542;28;19925;-67
2022/05/12 02:26:56;;;;;;;;;;;13.90;99.90;;;;;;5067912;28;19924;-67
2022/05/12 02:29:23;;;;;;;;;;;13.80;99.90;;;;;;5067356;28;20388;-67
2022/05/12 02:31:51;;;;;;;;;;;13.70;99.90;;;;;;5067723;28;19924;-67
2022/05/12 02:34:19;;;;;;;;;;;13.60;99.90;;;;;;5067938;28;19963;-67
2022/05/12 02:36:59;;;;;;;;;;;13.60;99.90;;;;;;5072532;28;19929;-67
2022/05/12 02:39:26;;;;;;;;;;;13.50;99.90;;;;;;5072941;28;19935;-67
2022/05/12 02:41:53;;;;;;;;;;;13.40;99.90;;;;;;5073134;28;20407;-67
2022/05/12 02:44:20;;;;;;;;;;;13.30;99.90;;;;;;5073085;28;19925;-67
2022/05/12 02:46:47;;;;;;;;;;;13.30;99.90;;;;;;5072972;28;19932;-67
2022/05/12 02:49:14;;;;;;;;;;;13.20;99.90;;;;;;5072711;28;19974;-67
2022/05/12 02:51:43;;;;;;;;;;;13.20;99.90;;;;;;5073041;28;19970;-67
2022/05/12 02:54:11;;;;;;;;;;;13.20;99.90;;;;;;5072780;28;20442;-67
2022/05/12 02:56:38;;;;;;;;;;;13.10;99.90;;;;;;5073100;28;19931;-67
2022/05/12 02:59:05;;;;;;;;;;;13.10;99.90;;;;;;5072526;28;19963;-67
2022/05/12 03:01:32;;;;;;;;;;;12.90;99.90;;;;;;5072864;28;20311;-67
2022/05/12 03:03:59;;;;;;;;;;;12.90;99.90;;;;;;5068978;28;19929;-67
2022/05/12 03:06:26;;;;;;;;;;;12.80;99.90;;;;;;5071739;28;19928;-67
2022/05/12 03:08:54;;;;;;;;;;;12.80;99.90;;;;;;5072709;28;19924;-66
2022/05/12 03:11:21;;;;;;;;;;;12.60;99.90;;;;;;5071280;28;20439;-67
2022/05/12 03:13:48;;;;;;;;;;;12.50;99.90;;;;;;5070289;28;19974;-67
2022/05/12 03:16:16;;;;;;;;;;;12.40;99.90;;;;;;5070694;28;20476;-67
2022/05/12 03:18:43;;;;;;;;;;;12.50;99.90;;;;;;5070623;28;19924;-67
2022/05/12 03:21:10;;;;;;;;;;;12.50;99.90;;;;;;5070253;28;20399;-67
2022/05/12 03:23:37;;;;;;;;;;;12.50;99.90;;;;;;5070485;28;20027;-68
2022/05/12 03:26:05;;;;;;;;;;;12.50;99.90;;;;;;5070775;28;19924;-67
2022/05/12 03:28:33;;;;;;;;;;;12.40;99.90;;;;;;5071054;28;19925;-67
2022/05/12 03:31:00;;;;;;;;;;;12.30;99.90;;;;;;5070402;28;20403;-67
2022/05/12 03:33:26;;;;;;;;;;;12.20;99.90;;;;;;5070199;28;19929;-67
2022/05/12 03:35:53;;;;;;;;;;;12.10;99.90;;;;;;5070133;28;20339;-67
2022/05/12 03:38:20;;;;;;;;;;;12.10;99.90;;;;;;5070287;28;19925;-68
2022/05/12 03:40:48;;;;;;;;;;;12.20;99.90;;;;;;5071091;28;19925;-67
2022/05/12 03:44:46;;;;;;;;;;;12.20;99.90;;;;;;5072478;28;19925;-67
2022/05/12 03:46:02;;;;;;;;;;;12.20;99.90;;;;;;5095954;22;19931;-68
2022/05/12 03:48:29;;;;;;;;;;;12.10;99.90;;;;;;5072139;28;19926;-69
2022/05/12 03:50:56;;;;;;;;;;;12.00;99.90;;;;;;5071211;28;19935;-68
2022/05/12 03:53:24;;;;;;;;;;;12.10;99.90;;;;;;5071308;28;19924;-68
2022/05/12 03:55:51;;;;;;;;;;;12.00;99.90;;;;;;5085720;28;19959;-68
2022/05/12 03:58:19;;;;;;;;;;;11.90;99.90;;;;;;5090679;28;20007;-69
2022/05/12 04:00:48;;;;;;;;;;;11.80;99.90;;;;;;5089855;28;19924;-70
2022/05/12 04:03:15;;;;;;;;;;;11.80;99.90;;;;;;5090185;28;20391;-69
2022/05/12 04:05:42;;;;;;;;;;;11.80;99.90;;;;;;5089761;28;19953;-68
2022/05/12 04:08:08;;;;;;;;;;;11.80;99.90;;;;;;5091765;28;19924;-69
2022/05/12 04:10:35;;;;;;;;;;;11.80;99.90;;;;;;5091652;28;19924;-68
2022/05/12 04:13:02;;;;;;;;;;;11.70;99.90;;;;;;5091820;28;19973;-68
2022/05/12 04:15:30;;;;;;;;;;;11.70;99.90;;;;;;5091374;28;20345;-69
2022/05/12 04:17:58;;;;;;;;;;;11.70;99.90;;;;;;5091637;28;19928;-69
2022/05/12 04:20:26;;;;;;;;;;;11.80;99.90;;;;;;5091539;28;19977;-69
2022/05/12 04:22:53;;;;;;;;;;;11.80;99.90;;;;;;5091399;28;19965;-68
2022/05/12 04:25:20;;;;;;;;;;;11.90;99.90;;;;;;5091382;28;19924;-68
2022/05/12 04:27:46;;;;;;;;;;;12.00;99.90;;;;;;5091520;28;20407;-69
2022/05/12 04:30:15;;;;;;;;;;;12.00;99.90;;;;;;5091211;28;19973;-71
2022/05/12 04:32:44;;;;;;;;;;;12.10;99.90;;;;;;5091299;28;20580;-70
2022/05/12 04:35:12;;;;;;;;;;;12.00;99.90;;;;;;5091096;28;20329;-68
2022/05/12 04:37:40;;;;;;;;;;;12.00;99.90;;;;;;5091454;28;19920;-69
2022/05/12 04:40:07;;;;;;;;;;;12.00;99.90;;;;;;5091248;28;19974;-69
2022/05/12 04:42:34;;;;;;;;;;;12.00;99.90;;;;;;5091390;28;19924;-69
2022/05/12 04:45:01;;;;;;;;;;;12.00;99.90;;;;;;5090557;28;19924;-70
2022/05/12 04:47:28;;;;;;;;;;;12.10;99.90;;;;;;5091581;28;19928;-68
2022/05/12 04:49:56;;;;;;;;;;;12.10;99.90;;;;;;5089592;28;19928;-68
2022/05/12 04:52:23;;;;;;;;;;;12.20;99.90;;;;;;5089345;28;19924;-70
2022/05/12 04:54:50;;;;;;;;;;;12.30;99.90;;;;;;5088617;28;19931;-68
2022/05/12 04:57:17;;;;;;;;;;;12.30;99.90;;;;;;5088722;28;19931;-70
2022/05/12 04:59:43;;;;;;;;;;;12.20;99.90;;;;;;5089023;28;19939;-70
2022/05/12 05:02:10;;;;;;;;;;;12.40;99.90;;;;;;5084954;28;20340;-69
2022/05/12 05:04:37;;;;;;;;;;;12.50;99.90;;;;;;5079924;28;19924;-69
2022/05/12 05:07:06;;;;;;;;;;;12.50;99.90;;;;;;5082889;28;19933;-67
2022/05/12 05:09:33;;;;;;;;;;;12.60;99.90;;;;;;5086975;28;19983;-67
2022/05/12 05:12:00;;;;;;;;;;;12.70;99.90;;;;;;5083643;28;19924;-68
2022/05/12 05:14:26;;;;;;;;;;;12.70;99.90;;;;;;5090437;28;19994;-69
2022/05/12 05:16:53;;;;;;;;;;;12.70;99.90;;;;;;5090810;28;19924;-68
2022/05/12 05:19:20;;;;;;;;;;;12.80;99.90;;;;;;5086829;28;20357;-68
2022/05/12 05:21:47;;;;;;;;;;;12.90;99.90;;;;;;5070400;28;19925;-69
2022/05/12 05:24:15;;;;;;;;;;;13.00;99.90;;;;;;5070036;28;19931;-68
2022/05/12 05:26:42;;;;;;;;;;;13.10;99.90;;;;;;5070179;28;19932;-68
2022/05/12 05:29:10;;;;;;;;;;;13.20;99.90;;;;;;5069843;28;19924;-68
2022/05/12 05:31:38;;;;;;;;;;;13.20;99.90;;;;;;5070156;28;19924;-70
2022/05/12 05:34:05;;;;;;;;;;;13.30;99.90;;;;;;5069708;28;19924;-70
2022/05/12 05:36:32;;;;;;;;;;;13.50;99.90;;;;;;5074699;28;19924;-69
2022/05/12 05:38:58;;;;;;;;;;;13.70;99.90;;;;;;5089822;28;20350;-69
2022/05/12 05:41:27;;;;;;;;;;;13.90;99.90;;;;;;5090219;28;19923;-69
2022/05/12 05:43:53;;;;;;;;;;;14.00;99.90;;;;;;5089813;28;19928;-69
2022/05/12 05:46:20;;;;;;;;;;;14.10;99.90;;;;;;5090018;28;19925;-70
2022/05/12 05:48:50;;;;;;;;;;;14.20;99.90;;;;;;5083821;28;19931;-68
2022/05/12 05:54:03;;;;;;;;;;;14.20;99.90;;;;;;5036055;28;19927;-71
2022/05/12 05:56:32;;;;;;;;;;;14.20;99.90;;;;;;5069915;28;19924;-74
2022/05/12 05:58:59;;;;;;;;;;;14.20;99.90;;;;;;5069501;28;19974;-72
2022/05/12 06:01:26;;;;;;;;;;;14.20;99.90;;;;;;5069848;28;20353;-75
2022/05/12 06:03:53;;;;;;;;;;;14.10;99.90;;;;;;5070559;28;19936;-68
2022/05/12 06:06:19;;;;;;;;;;;14.10;99.90;;;;;;5069733;28;19925;-70
2022/05/12 06:08:48;;;;;;;;;;;14.10;99.90;;;;;;5069646;28;19924;-70
2022/05/12 06:11:15;;;;;;;;;;;14.10;99.90;;;;;;5083332;28;20410;-71
2022/05/12 06:13:44;;;;;;;;;;;14.30;99.90;;;;;;5093669;28;19966;-70
2022/05/12 06:16:10;;;;;;;;;;;14.40;99.90;;;;;;5094341;28;19931;-70
2022/05/12 06:18:37;;;;;;;;;;;14.30;99.90;;;;;;5093906;28;20302;-72
2022/05/12 06:21:05;;;;;;;;;;;14.30;99.90;;;;;;5087369;28;19928;-70
2022/05/12 06:23:33;;;;;;;;;;;14.40;99.90;;;;;;5084901;28;20129;-69
2022/05/12 06:26:00;;;;;;;;;;;14.40;99.90;;;;;;5073370;28;19932;-70
2022/05/12 06:28:27;;;;;;;;;;;14.50;99.90;;;;;;5071835;28;19924;-69
2022/05/12 06:30:55;;;;;;;;;;;14.50;99.90;;;;;;5071403;28;19932;-69
2022/05/12 06:33:22;;;;;;;;;;;14.50;99.90;;;;;;5085604;28;19932;-69
2022/05/12 06:35:50;;;;;;;;;;;14.60;99.90;;;;;;5094093;28;19931;-69
2022/05/12 06:38:17;;;;;;;;;;;14.70;99.90;;;;;;5088174;28;19925;-70
2022/05/12 06:40:44;;;;;;;;;;;14.70;99.90;;;;;;5091445;28;19968;-69
2022/05/12 06:43:11;;;;;;;;;;;14.60;99.90;;;;;;5076883;28;19932;-71
2022/05/12 06:45:38;;;;;;;;;;;14.50;99.90;;;;;;5089433;28;20378;-70
2022/05/12 06:48:07;;;;;;;;;;;14.60;99.90;;;;;;5080733;28;19929;-70
2022/05/12 06:50:33;;;;;;;;;;;14.70;99.90;;;;;;5073459;28;19959;-70
2022/05/12 06:53:00;;;;;;;;;;;14.80;99.90;;;;;;5073512;28;19928;-70
2022/05/12 06:55:29;;;;;;;;;;;14.90;99.90;;;;;;5073202;28;19978;-73
2022/05/12 06:57:56;;;;;;;;;;;15.10;99.90;;;;;;5073118;28;19925;-70
2022/05/12 07:00:23;;;;;;;;;;;15.20;99.90;;;;;;5073051;28;20369;-69
2022/05/12 07:02:51;;;;;;;;;;;15.10;99.90;;;;;;5093128;28;20370;-71
2022/05/12 07:05:21;;;;;;;;;;;14.90;99.90;;;;;;5088619;28;20391;-69
2022/05/12 07:07:48;;;;;;;;;;;15.00;99.90;;;;;;5094133;28;19928;-70
2022/05/12 07:10:16;;;;;;;;;;;15.10;99.90;;;;;;5085783;28;19963;-70
2022/05/12 07:12:43;;;;;;;;;;;15.10;99.90;;;;;;5093062;28;20280;-70
2022/05/12 07:15:10;;;;;;;;;;;15.20;99.90;;;;;;5092551;28;20349;-70
2022/05/12 07:17:38;;;;;;;;;;;15.20;99.90;;;;;;5093181;28;19946;-70
2022/05/12 07:28:19;;;;;;;;;;;15.50;99.90;;;;;;5095005;28;19955;-71
2022/05/12 07:31:01;;;;;;;;;;;15.60;99.90;;;;;;5091081;28;19924;-70
2022/05/12 07:33:28;;;;;;;;;;;15.70;99.90;;;;;;5089559;28;19925;-70
2022/05/12 07:35:55;;;;;;;;;;;15.70;99.90;;;;;;5112019;28;19924;-70
2022/05/12 07:38:23;;;;;;;;;;;16.10;99.90;;;;;;5112814;28;19989;-71
2022/05/12 07:40:50;;;;;;;;;;;16.30;99.90;;;;;;5105083;28;19924;-70
2022/05/12 07:43:17;;;;;;;;;;;16.40;99.90;;;;;;5092362;28;19928;-70
2022/05/12 07:45:43;;;;;;;;;;;16.20;99.90;;;;;;5084952;28;19977;-73
2022/05/12 07:48:11;;;;;;;;;;;16.20;99.90;;;;;;5101962;28;19931;-73
2022/05/12 07:50:39;;;;;;;;;;;16.10;99.90;;;;;;5103824;28;20395;-68
2022/05/12 07:53:05;;;;;;;;;;;16.10;99.90;;;;;;5082618;28;19931;-70
2022/05/12 07:55:34;;;;;;;;;;;16.40;99.90;;;;;;5082233;28;19928;-71
2022/05/12 07:58:00;;;;;;;;;;;16.50;99.90;;;;;;5090028;28;19928;-70
2022/05/12 08:00:28;;;;;;;;;;;16.30;99.90;;;;;;5112725;27;19924;-69
2022/05/12 08:02:56;;;;;;;;;;;16.60;99.90;;;;;;5091734;28;19924;-70
2022/05/12 08:05:23;;;;;;;;;;;16.60;99.90;;;;;;5091937;28;20277;-69
2022/05/12 08:07:51;;;;;;;;;;;16.70;99.90;;;;;;5091788;28;19928;-68
2022/05/12 08:10:18;;;;;;;;;;;16.60;99.90;;;;;;5090233;28;19931;-70
2022/05/12 08:12:46;;;;;;;;;;;16.80;99.90;;;;;;5071611;28;19924;-69
2022/05/12 08:15:13;;;;;;;;;;;16.60;99.90;;;;;;5071156;28;20639;-71
2022/05/12 08:17:40;;;;;;;;;;;16.30;99.90;;;;;;5071510;28;19925;-72
2022/05/12 08:20:07;;;;;;;;;;;16.50;99.90;;;;;;5071078;28;19925;-69
2022/05/12 08:22:34;;;;;;;;;;;16.70;99.90;;;;;;5071272;28;19970;-72
2022/05/12 08:25:04;;;;;;;;;;;16.80;99.90;;;;;;5070954;28;20016;-69
2022/05/12 08:27:30;;;;;;;;;;;16.90;99.90;;;;;;5071657;28;19970;-69
2022/05/12 08:29:59;;;;;;;;;;;17.20;99.90;;;;;;5071075;28;19978;-69
2022/05/12 08:32:26;;;;;;;;;;;17.30;99.90;;;;;;5070398;28;19924;-70
2022/05/12 08:34:53;;;;;;;;;;;17.40;99.90;;;;;;5070576;28;19925;-69
2022/05/12 08:37:20;;;;;;;;;;;17.10;99.90;;;;;;5071106;28;19964;-70
2022/05/12 08:39:47;;;;;;;;;;;17.00;99.90;;;;;;5070876;28;19974;-70
2022/05/12 08:42:16;;;;;;;;;;;17.00;99.90;;;;;;5071029;28;19932;-70
2022/05/12 08:44:42;;;;;;;;;;;17.00;99.90;;;;;;5070235;28;19928;-70
2022/05/12 08:47:13;;;;;;;;;;;16.80;99.90;;;;;;5071237;28;19924;-69
2022/05/12 08:49:42;;;;;;;;;;;16.80;99.90;;;;;;5070455;28;20388;-70
2022/05/12 08:52:14;;;;;;;;;;;17.10;99.90;;;;;;5070754;28;20376;-70
2022/05/12 08:54:43;;;;;;;;;;;17.20;99.90;;;;;;5070222;28;20293;-70
2022/05/12 08:57:21;;;;;;;;;;;17.40;99.90;;;;;;5070680;28;20304;-69
2022/05/12 08:59:48;;;;;;;;;;;17.50;99.90;;;;;;5070894;28;19928;-70
2022/05/12 09:02:20;;;;;;;;;;;17.80;99.90;;;;;;5070662;28;19982;-73
2022/05/12 09:04:57;;;;;;;;;;;17.70;99.90;;;;;;5070110;28;19925;-72
2022/05/12 09:07:27;;;;;;;;;;;17.90;99.90;;;;;;5096837;28;19931;-70
2022/05/12 09:09:56;;;;;;;;;;;18.00;99.90;;;;;;5110735;28;19924;-70
2022/05/12 09:12:28;;;;;;;;;;;17.80;99.90;;;;;;5073125;28;19924;-69
2022/05/12 09:14:56;;;;;;;;;;;17.60;99.90;;;;;;5070185;28;20039;-70
2022/05/12 09:17:27;;;;;;;;;;;17.60;99.90;;;;;;5070381;28;19924;-71
2022/05/12 09:19:54;;;;;;;;;;;17.70;99.90;;;;;;5070145;28;20370;-70
2022/05/12 09:22:24;;;;;;;;;;;17.90;99.90;;;;;;5070458;28;19932;-69
2022/05/12 09:24:51;;;;;;;;;;;17.90;99.90;;;;;;5069754;28;20353;-69
2022/05/12 09:27:18;;;;;;;;;;;17.90;99.90;;;;;;5070536;28;19928;-70
2022/05/12 09:29:46;;;;;;;;;;;18.00;99.90;;;;;;5069957;28;19977;-70
2022/05/12 09:32:17;;;;;;;;;;;17.90;99.90;;;;;;5069993;28;19951;-70
2022/05/12 09:34:47;;;;;;;;;;;17.80;99.90;;;;;;5069729;28;19974;-69
2022/05/12 09:37:15;;;;;;;;;;;18.30;99.90;;;;;;5070080;28;19924;-70
2022/05/12 09:39:43;;;;;;;;;;;18.50;99.90;;;;;;5069658;28;20028;-70
2022/05/12 09:42:15;;;;;;;;;;;18.60;99.90;;;;;;5070121;28;19924;-70
2022/05/12 09:44:51;;;;;;;;;;;18.50;99.90;;;;;;5070153;28;19937;-70
2022/05/12 09:47:18;;;;;;;;;;;18.60;99.90;;;;;;5070500;28;19924;-70
2022/05/12 09:49:48;;;;;;;;;;;18.60;99.90;;;;;;5069701;28;19928;-72
2022/05/12 09:52:24;;;;;;;;;;;18.40;99.90;;;;;;5069752;28;19928;-70
2022/05/12 09:55:08;;;;;;;;;;;18.30;99.90;;;;;;5069881;28;20061;-71
2022/05/12 09:57:35;;;;;;;;;;;18.60;99.90;;;;;;5078206;28;19936;-70
2022/05/12 10:00:07;;;;;;;;;;;18.80;99.90;;;;;;5087493;28;19930;-70
2022/05/12 10:08:17;;;;;;;;;;;18.60;99.90;;;;;;5084766;28;19924;-73
2022/05/12 10:10:46;;;;;;;;;;;18.60;99.90;;;;;;5100273;28;20379;-72
2022/05/12 10:13:20;;;;;;;;;;;18.50;99.90;;;;;;5096388;28;19924;-73
2022/05/12 10:15:48;;;;;;;;;;;18.40;99.90;;;;;;5088098;28;19928;-70
2022/05/12 10:18:17;;;;;;;;;;;18.50;99.90;;;;;;5102697;28;20383;-73
2022/05/12 10:20:47;;;;;;;;;;;18.90;99.90;;;;;;5111654;28;20359;-70
2022/05/12 10:23:18;;;;;;;;;;;19.00;99.90;;;;;;5105607;28;19924;-70
2022/05/12 10:25:57;;;;;;;;;;;19.30;99.90;;;;;;5096952;28;20391;-70
2022/05/12 10:28:26;;;;;;;;;;;19.60;99.90;;;;;;5092548;28;19938;-73
2022/05/12 10:30:55;;;;;;;;;;;19.80;99.90;;;;;;5098679;28;19974;-70
2022/05/12 10:33:27;;;;;;;;;;;19.80;99.90;;;;;;5089356;28;19924;-71
2022/05/12 10:35:59;;;;;;;;;;;19.80;99.90;;;;;;5089582;28;19930;-72
2022/05/12 10:38:31;;;;;;;;;;;19.80;99.90;;;;;;5088481;28;19939;-73
2022/05/12 10:41:00;;;;;;;;;;;19.70;99.90;;;;;;5090364;28;20434;-70
2022/05/12 10:43:37;;;;;;;;;;;19.70;99.90;;;;;;5084147;28;19978;-69
2022/05/12 10:46:05;;;;;;;;;;;19.80;99.90;;;;;;5093929;28;19967;-70
2022/05/12 10:48:39;;;;;;;;;;;19.60;99.90;;;;;;5099600;28;19963;-70
2022/05/12 10:51:09;;;;;;;;;;;19.80;99.90;;;;;;5090746;28;20019;-69
2022/05/12 10:53:43;;;;;;;;;;;20.00;99.90;;;;;;5089167;28;19924;-70
2022/05/12 10:56:29;;;;;;;;;;;19.80;99.90;;;;;;5091563;28;20015;-69
2022/05/12 10:59:02;;;;;;;;;;;19.90;99.90;;;;;;5088253;28;19927;-70
2022/05/12 11:01:32;;;;;;;;;;;19.80;99.90;;;;;;5103570;28;20026;-70
2022/05/12 11:04:02;;;;;;;;;;;19.90;99.90;;;;;;5088898;28;19931;-69
2022/05/12 11:06:31;;;;;;;;;;;20.30;99.90;;;;;;5086378;28;19963;-71
2022/05/12 11:09:00;;;;;;;;;;;20.80;99.90;;;;;;5092471;28;20011;-72
2022/05/12 11:11:28;;;;;;;;;;;21.20;99.90;;;;;;5087757;28;19932;-71
2022/05/12 11:13:59;;;;;;;;;;;20.90;99.90;;;;;;5095060;28;20022;-69
2022/05/12 11:16:27;;;;;;;;;;;20.60;99.90;;;;;;5082246;28;20039;-72
2022/05/12 11:18:56;;;;;;;;;;;20.50;99.90;;;;;;5090491;28;20327;-70
2022/05/12 11:21:25;;;;;;;;;;;20.60;99.90;;;;;;5101482;28;19983;-70
2022/05/12 11:24:00;;;;;;;;;;;20.20;99.90;;;;;;5102228;28;20407;-70
2022/05/12 11:26:33;;;;;;;;;;;20.30;99.90;;;;;;5092732;28;20026;-72
2022/05/12 11:31:49;;;;;;;;;;;21.10;99.90;;;;;;5092601;28;20361;-69
2022/05/12 11:34:17;;;;;;;;;;;21.60;99.90;;;;;;5091667;28;19960;-69
2022/05/12 11:36:45;;;;;;;;;;;22.30;99.90;;;;;;5093651;28;19977;-70
2022/05/12 11:39:24;;;;;;;;;;;22.70;99.90;;;;;;5092336;28;19924;-70
2022/05/12 11:42:06;;;;;;;;;;;22.80;99.90;;;;;;5093523;28;19924;-71
2022/05/12 11:44:39;;;;;;;;;;;22.10;99.90;;;;;;5093228;28;20035;-70
2022/05/12 11:47:20;;;;;;;;;;;21.80;99.90;;;;;;5093265;28;19966;-71
2022/05/12 11:49:57;;;;;;;;;;;21.50;99.90;;;;;;5080106;28;19928;-70
2022/05/12 11:52:31;;;;;;;;;;;22.10;99.90;;;;;;5093025;28;19930;-70
2022/05/12 11:55:02;;;;;;;;;;;23.60;99.90;;;;;;5075949;28;19962;-70
2022/05/12 11:57:29;;;;;;;;;;;24.20;99.90;;;;;;5071791;28;19951;-70
2022/05/12 11:59:57;;;;;;;;;;;24.30;99.90;;;;;;5071547;28;19935;-71
2022/05/12 12:02:38;;;;;;;;;;;25.00;99.90;;;;;;5089681;28;19924;-71
2022/05/12 12:05:05;;;;;;;;;;;25.40;99.90;;;;;;5091411;28;19974;-71
2022/05/12 12:07:47;;;;;;;;;;;25.30;99.90;;;;;;5090295;28;20276;-70
2022/05/12 12:10:30;;;;;;;;;;;25.20;99.90;;;;;;5090483;28;19932;-71
2022/05/12 12:13:00;;;;;;;;;;;24.70;99.90;;;;;;5091723;28;20429;-73
2022/05/12 12:15:41;;;;;;;;;;;25.00;99.90;;;;;;5091264;28;20384;-70
2022/05/12 12:18:41;;;;;;;;;;;25.70;99.90;;;;;;5092834;28;20334;-70
2022/05/12 12:21:23;;;;;;;;;;;26.40;99.90;;;;;;5082395;28;19985;-70
2022/05/12 12:23:58;;;;;;;;;;;25.30;99.90;;;;;;5070923;28;19931;-71
2022/05/12 12:26:28;;;;;;;;;;;24.30;99.90;;;;;;5071748;28;19925;-72
2022/05/12 12:28:59;;;;;;;;;;;23.40;99.90;;;;;;5085541;28;19976;-71
2022/05/12 12:31:37;;;;;;;;;;;24.70;99.90;;;;;;5086202;28;19924;-71
2022/05/12 12:34:09;;;;;;;;;;;25.70;99.90;;;;;;5091368;28;19931;-74
2022/05/12 12:36:38;;;;;;;;;;;;;;;;;;5074291;28;21759;-63
2022/05/12 12:39:10;;;;;;;;;;;28.30;99.90;;;;;;5091817;28;20357;-63
2022/05/12 12:41:37;;;;;;;;;;;;;;;;;;5076148;28;19928;-63
2022/05/12 12:44:04;;;;;;;;;;;;;;;;;;5069786;28;19931;-64
2022/05/12 12:46:32;;;;;;;;;;;;;;;;;;5071584;28;20311;-64
2022/05/12 12:49:02;;;;;;;;;;;25.70;99.90;;;;;;5099581;28;19924;-63
2022/05/12 12:51:29;;;;;;;;;;;25.20;99.90;;;;;;5070806;28;19986;-63
2022/05/12 12:56:41;;;;;;;;;;;25.90;99.90;;;;;;5070834;28;19921;-64
2022/05/12 12:59:09;;;;;;;;;;;25.40;99.90;;;;;;5071031;28;20429;-64
2022/05/12 13:01:37;;;;;;;;;;;25.80;99.90;;;;;;5091058;28;19931;-64
2022/05/12 13:04:08;;;;;;;;;;;26.20;99.90;;;;;;5085414;28;19978;-64
2022/05/12 13:06:37;;;;;;;;;;;26.20;99.90;;;;;;5111506;28;20413;-64
2022/05/12 13:09:05;;;;;;;;;;;26.30;99.90;;;;;;5111035;28;19931;-64
2022/05/12 13:11:32;;;;;;;;;;;;;;;;;;5087608;28;19974;-64
2022/05/12 13:14:00;;;;;;;;;;;26.80;99.90;;;;;;5070034;28;20291;-67
2022/05/12 13:16:30;;;;;;;;;;;26.10;99.90;;;;;;5070188;28;19924;-63
2022/05/12 13:18:57;;;;;;;;;;;26.40;99.90;;;;;;5069808;28;19924;-63
2022/05/12 13:21:28;;;;;;;;;;;26.10;99.90;;;;;;5070238;28;19924;-64
2022/05/12 13:23:59;;;;;;;;;;;26.20;99.90;;;;;;5069929;28;20338;-63
2022/05/12 13:26:26;;;;;;;;;;;25.60;99.90;;;;;;5070013;28;19924;-63
2022/05/12 13:28:53;;;;;;;;;;;26.10;99.90;;;;;;5069786;28;20445;-63
2022/05/12 13:31:20;;;;;;;;;;;;;;;;;;5081398;28;19977;-63
2022/05/12 13:34:00;;;;;;;;;;;26.40;99.90;;;;;;5096007;28;19931;-63
2022/05/12 13:36:32;;;;;;;;;;;26.60;99.90;;;;;;5086018;28;20365;-63
2022/05/12 13:38:58;;;;;;;;;;;27.00;99.90;;;;;;5089982;28;19974;-62
2022/05/12 13:41:28;;;;;;;;;;;27.20;99.90;;;;;;5090077;28;19960;-62
2022/05/12 13:44:00;;;;;;;;;;;28.40;99.90;;;;;;5089752;28;19934;-62
2022/05/12 13:46:28;;;;;;;;;;;27.90;99.90;;;;;;5090093;28;19960;-62
2022/05/12 13:48:58;;;;;;;;;;;28.00;99.90;;;;;;5089594;28;20395;-62
2022/05/12 13:51:25;;;;;;;;;;;;;;;;;;5090139;28;20387;-63
2022/05/12 13:53:53;;;;;;;;;;;27.40;99.90;;;;;;5090772;28;19928;-63
2022/05/12 13:56:25;;;;;;;;;;;27.50;99.90;;;;;;5090183;28;19945;-62
2022/05/12 13:58:53;;;;;;;;;;;27.40;99.90;;;;;;5090142;28;19924;-62
2022/05/12 14:01:28;;;;;;;;;;;28.30;99.90;;;;;;5090121;28;20407;-61
2022/05/12 14:03:55;;;;;;;;;;;;;;;;;;5088406;28;19985;-64
2022/05/12 14:06:28;;;;;;;;;;;25.90;99.90;;;;;;5089774;28;19987;-62
2022/05/12 14:09:04;;;;;;;;;;;25.50;99.90;;;;;;5089489;28;19967;-63
2022/05/12 14:11:31;;;;;;;;;;;25.80;99.90;;;;;;5089671;28;19928;-63
2022/05/12 14:19:31;;;;;;;;;;;26.60;99.90;;;;;;5089539;28;19920;-63
2022/05/12 14:21:59;;;;;;;;;;;25.80;99.90;;;;;;5090001;28;19928;-63
2022/05/12 14:24:28;;;;;;;;;;;25.10;99.90;;;;;;5089396;28;19924;-63
2022/05/12 14:26:55;;;;;;;;;;;25.10;99.90;;;;;;5088843;28;19928;-54
2022/05/12 14:29:22;;;;;;;;;;;25.80;99.90;;;;;;5086679;28;20306;-53
2022/05/12 14:31:50;;;;;;;;;;;26.20;99.90;;;;;;5093444;28;19924;-55
2022/05/12 14:34:19;;;;;;;;;;;26.50;99.90;;;;;;5123802;27;19927;-52
2022/05/12 14:36:46;;;;;;;;;;;25.70;99.90;;;;;;5114921;28;19924;-56
2022/05/12 14:39:13;;;;;;;;;;;25.80;99.90;;;;;;5087513;28;19925;-55
2022/05/12 14:41:42;;;;;;;;;;;26.60;99.90;;;;;;5091488;28;20004;-56
2022/05/12 14:44:08;;;;;;;;;;;26.60;99.90;;;;;;5094701;28;19924;-63
2022/05/12 14:46:39;;;;;;;;;;;26.20;99.90;;;;;;5085903;28;19946;-62
2022/05/12 14:49:06;;;;;;;;;;;26.10;99.90;;;;;;5089637;28;19924;-62
2022/05/12 14:51:33;;;;;;;;;;;26.50;99.90;;;;;;5094451;28;19952;-62
2022/05/12 14:54:00;;;;;;;;;;;26.70;99.90;;;;;;5093817;28;20375;-61
2022/05/12 14:56:27;;;;;;;;;;;;;;;;;;5093832;28;20304;-53
2022/05/12 14:58:56;;;;;;;;;;;25.40;99.90;;;;;;5088994;28;19924;-51